sensor_id;sensor_type;location;lat;lon;timestamp;pressure;altitude;pressure_sealevel;temperature;humidity
77110;BME280;66062;52.464;16.922;2023-06-10T00:01:25;100570.91;;;18.38;69.33
77110;BME280;66062;52.464;16.922;2023-06-10T00:03:50;100563.56;;;18.32;70.30
77110;BME280;66062;52.464;16.922;2023-06-10T00:06:17;100574.63;;;18.37;70.73
77110;BME280;66062;52.464;16.922;2023-06-10T00:08:42;100569.97;;;18.31;71.14
77110;BME280;66062;52.464;16.922;2023-06-10T00:11:08;100578.94;;;18.32;70.85
77110;BME280;66062;52.464;16.922;2023-06-10T00:13:33;100581.28;;;18.20;72.29
77110;BME280;66062;52.464;16.922;2023-06-10T00:15:59;100575.34;;;18.10;72.69
77110;BME280;66062;52.464;16.922;2023-06-10T00:18:24;100573.09;;;18.14;73.10
77110;BME280;66062;52.464;16.922;2023-06-10T00:20:52;100575.41;;;18.17;73.11
77110;BME280;66062;52.464;16.922;2023-06-10T00:23:20;100569.63;;;18.20;72.96
77110;BME280;66062;52.464;16.922;2023-06-10T00:25:46;100575.16;;;18.12;73.75
77110;BME280;66062;52.464;16.922;2023-06-10T00:28:11;100578.69;;;18.12;73.69
77110;BME280;66062;52.464;16.922;2023-06-10T00:30:36;100584.75;;;18.00;74.68
77110;BME280;66062;52.464;16.922;2023-06-10T00:33:02;100579.09;;;17.94;74.78
77110;BME280;66062;52.464;16.922;2023-06-10T00:35:27;100581.88;;;18.01;74.81
77110;BME280;66062;52.464;16.922;2023-06-10T00:37:53;100580.19;;;18.00;75.24
77110;BME280;66062;52.464;16.922;2023-06-10T00:40:18;100583.00;;;17.92;75.62
77110;BME280;66062;52.464;16.922;2023-06-10T00:42:43;100584.38;;;17.88;75.89
77110;BME280;66062;52.464;16.922;2023-06-10T00:45:09;100586.28;;;17.87;76.22
77110;BME280;66062;52.464;16.922;2023-06-10T00:47:34;100576.22;;;17.81;76.53
77110;BME280;66062;52.464;16.922;2023-06-10T00:50:01;100588.78;;;17.74;76.82
77110;BME280;66062;52.464;16.922;2023-06-10T00:52:28;100591.13;;;17.77;77.95
77110;BME280;66062;52.464;16.922;2023-06-10T00:54:55;100586.09;;;17.60;78.28
77110;BME280;66062;52.464;16.922;2023-06-10T00:57:20;100586.09;;;17.60;78.11
77110;BME280;66062;52.464;16.922;2023-06-10T00:59:48;100589.97;;;17.57;78.89
77110;BME280;66062;52.464;16.922;2023-06-10T01:02:14;100585.91;;;17.61;78.38
77110;BME280;66062;52.464;16.922;2023-06-10T01:04:39;100586.22;;;17.58;78.38
77110;BME280;66062;52.464;16.922;2023-06-10T01:07:25;100586.63;;;17.55;78.75
77110;BME280;66062;52.464;16.922;2023-06-10T01:10:25;100593.75;;;17.48;79.00
77110;BME280;66062;52.464;16.922;2023-06-10T01:12:59;100585.47;;;17.35;80.11
77110;BME280;66062;52.464;16.922;2023-06-10T01:15:31;100597.22;;;17.42;80.08
77110;BME280;66062;52.464;16.922;2023-06-10T01:18:01;100592.84;;;17.41;80.12
77110;BME280;66062;52.464;16.922;2023-06-10T01:20:29;100602.63;;;17.42;79.79
77110;BME280;66062;52.464;16.922;2023-06-10T01:22:55;100601.78;;;17.27;81.16
77110;BME280;66062;52.464;16.922;2023-06-10T01:25:22;100606.13;;;17.28;80.94
77110;BME280;66062;52.464;16.922;2023-06-10T01:30:48;100614.66;;;17.17;81.52
77110;BME280;66062;52.464;16.922;2023-06-10T01:33:18;100614.13;;;16.98;82.68
77110;BME280;66062;52.464;16.922;2023-06-10T01:35:47;100611.28;;;17.00;82.62
77110;BME280;66062;52.464;16.922;2023-06-10T01:38:14;100609.16;;;17.10;82.56
77110;BME280;66062;52.464;16.922;2023-06-10T01:40:41;100610.09;;;17.17;82.37
77110;BME280;66062;52.464;16.922;2023-06-10T01:43:07;100619.38;;;17.00;82.82
77110;BME280;66062;52.464;16.922;2023-06-10T01:45:32;100608.56;;;17.00;82.80
77110;BME280;66062;52.464;16.922;2023-06-10T01:47:58;100613.00;;;16.93;83.80
77110;BME280;66062;52.464;16.922;2023-06-10T01:50:23;100608.28;;;16.95;82.62
77110;BME280;66062;52.464;16.922;2023-06-10T01:52:49;100609.88;;;16.81;83.63
77110;BME280;66062;52.464;16.922;2023-06-10T01:55:14;100622.72;;;16.79;84.46
77110;BME280;66062;52.464;16.922;2023-06-10T01:57:40;100613.31;;;16.75;84.16
77110;BME280;66062;52.464;16.922;2023-06-10T02:00:06;100622.47;;;16.66;84.72
77110;BME280;66062;52.464;16.922;2023-06-10T02:02:31;100623.00;;;16.61;85.38
77110;BME280;66062;52.464;16.922;2023-06-10T02:04:57;100627.97;;;16.73;84.37
77110;BME280;66062;52.464;16.922;2023-06-10T02:07:22;100624.81;;;16.69;84.66
77110;BME280;66062;52.464;16.922;2023-06-10T02:09:47;100622.13;;;16.69;85.05
77110;BME280;66062;52.464;16.922;2023-06-10T02:12:13;100627.13;;;16.72;84.67
77110;BME280;66062;52.464;16.922;2023-06-10T02:14:38;100630.84;;;16.71;84.45
77110;BME280;66062;52.464;16.922;2023-06-10T02:17:03;100629.13;;;16.78;83.80
77110;BME280;66062;52.464;16.922;2023-06-10T02:19:29;100629.00;;;16.72;84.42
77110;BME280;66062;52.464;16.922;2023-06-10T02:21:56;100625.28;;;16.73;84.04
77110;BME280;66062;52.464;16.922;2023-06-10T02:24:21;100627.69;;;16.67;84.48
77110;BME280;66062;52.464;16.922;2023-06-10T02:26:46;100636.75;;;16.75;84.03
77110;BME280;66062;52.464;16.922;2023-06-10T02:29:13;100634.28;;;16.65;84.30
77110;BME280;66062;52.464;16.922;2023-06-10T02:31:38;100642.00;;;16.68;84.09
77110;BME280;66062;52.464;16.922;2023-06-10T02:34:04;100646.75;;;16.58;84.58
77110;BME280;66062;52.464;16.922;2023-06-10T02:36:30;100641.34;;;16.58;84.14
77110;BME280;66062;52.464;16.922;2023-06-10T02:38:56;100642.69;;;16.62;84.37
77110;BME280;66062;52.464;16.922;2023-06-10T02:41:22;100649.31;;;16.59;84.36
77110;BME280;66062;52.464;16.922;2023-06-10T02:43:48;100648.88;;;16.40;84.95
77110;BME280;66062;52.464;16.922;2023-06-10T02:46:13;100644.13;;;16.42;85.11
77110;BME280;66062;52.464;16.922;2023-06-10T02:48:43;100654.03;;;16.49;84.25
77110;BME280;66062;52.464;16.922;2023-06-10T02:51:11;100644.75;;;16.60;83.73
77110;BME280;66062;52.464;16.922;2023-06-10T02:53:37;100643.72;;;16.61;82.97
77110;BME280;66062;52.464;16.922;2023-06-10T02:56:03;100646.97;;;16.48;83.58
77110;BME280;66062;52.464;16.922;2023-06-10T02:58:29;100648.81;;;16.48;83.09
77110;BME280;66062;52.464;16.922;2023-06-10T03:00:54;100653.16;;;16.65;82.32
77110;BME280;66062;52.464;16.922;2023-06-10T03:03:20;100659.53;;;16.56;82.41
77110;BME280;66062;52.464;16.922;2023-06-10T03:05:48;100651.28;;;16.57;82.20
77110;BME280;66062;52.464;16.922;2023-06-10T03:08:13;100658.53;;;16.65;81.44
77110;BME280;66062;52.464;16.922;2023-06-10T03:10:38;100656.38;;;16.60;81.26
77110;BME280;66062;52.464;16.922;2023-06-10T03:13:04;100663.56;;;16.68;80.36
77110;BME280;66062;52.464;16.922;2023-06-10T03:15:30;100665.25;;;16.69;80.52
77110;BME280;66062;52.464;16.922;2023-06-10T03:17:58;100662.19;;;16.72;80.08
77110;BME280;66062;52.464;16.922;2023-06-10T03:20:25;100673.94;;;16.79;79.31
77110;BME280;66062;52.464;16.922;2023-06-10T03:22:50;100671.53;;;16.84;78.79
77110;BME280;66062;52.464;16.922;2023-06-10T03:25:16;100672.38;;;16.85;78.34
77110;BME280;66062;52.464;16.922;2023-06-10T03:27:42;100674.25;;;16.84;78.11
77110;BME280;66062;52.464;16.922;2023-06-10T03:30:08;100673.88;;;16.87;77.64
77110;BME280;66062;52.464;16.922;2023-06-10T03:32:34;100677.16;;;16.97;76.83
77110;BME280;66062;52.464;16.922;2023-06-10T03:35:00;100675.81;;;17.01;76.62
77110;BME280;66062;52.464;16.922;2023-06-10T03:37:26;100669.03;;;17.05;75.67
77110;BME280;66062;52.464;16.922;2023-06-10T03:39:51;100673.88;;;17.10;75.25
77110;BME280;66062;52.464;16.922;2023-06-10T03:42:16;100681.91;;;17.18;74.93
77110;BME280;66062;52.464;16.922;2023-06-10T03:44:42;100682.75;;;17.19;75.20
77110;BME280;66062;52.464;16.922;2023-06-10T03:47:08;100691.81;;;17.26;74.69
77110;BME280;66062;52.464;16.922;2023-06-10T03:49:33;100693.81;;;17.24;73.81
77110;BME280;66062;52.464;16.922;2023-06-10T03:51:59;100697.50;;;17.31;74.51
77110;BME280;66062;52.464;16.922;2023-06-10T03:54:24;100708.38;;;17.37;73.68
77110;BME280;66062;52.464;16.922;2023-06-10T03:56:50;100708.31;;;17.45;73.05
77110;BME280;66062;52.464;16.922;2023-06-10T03:59:15;100713.63;;;17.53;72.64
77110;BME280;66062;52.464;16.922;2023-06-10T04:01:41;100713.06;;;17.43;72.84
77110;BME280;66062;52.464;16.922;2023-06-10T04:04:07;100720.72;;;17.54;72.73
77110;BME280;66062;52.464;16.922;2023-06-10T04:06:32;100720.19;;;17.59;72.65
77110;BME280;66062;52.464;16.922;2023-06-10T04:08:57;100725.25;;;17.62;72.98
77110;BME280;66062;52.464;16.922;2023-06-10T04:11:26;100732.81;;;17.67;72.44
77110;BME280;66062;52.464;16.922;2023-06-10T04:13:51;100737.81;;;17.70;72.35
77110;BME280;66062;52.464;16.922;2023-06-10T04:16:17;100741.66;;;17.75;72.22
77110;BME280;66062;52.464;16.922;2023-06-10T04:18:42;100750.72;;;17.82;71.77
77110;BME280;66062;52.464;16.922;2023-06-10T04:21:08;100759.97;;;18.03;70.69
77110;BME280;66062;52.464;16.922;2023-06-10T04:23:37;100749.97;;;18.03;70.38
77110;BME280;66062;52.464;16.922;2023-06-10T04:26:03;100756.50;;;18.09;69.64
77110;BME280;66062;52.464;16.922;2023-06-10T04:28:30;100758.19;;;18.24;69.36
77110;BME280;66062;52.464;16.922;2023-06-10T04:30:56;100764.44;;;18.25;69.14
77110;BME280;66062;52.464;16.922;2023-06-10T04:33:21;100756.25;;;18.18;69.50
77110;BME280;66062;52.464;16.922;2023-06-10T04:35:46;100754.41;;;18.33;68.77
77110;BME280;66062;52.464;16.922;2023-06-10T04:38:13;100761.94;;;18.38;68.42
77110;BME280;66062;52.464;16.922;2023-06-10T04:40:39;100758.41;;;18.37;68.32
77110;BME280;66062;52.464;16.922;2023-06-10T04:43:04;100754.75;;;18.45;67.71
77110;BME280;66062;52.464;16.922;2023-06-10T04:45:29;100763.44;;;18.55;67.21
77110;BME280;66062;52.464;16.922;2023-06-10T04:47:56;100768.53;;;18.65;67.23
77110;BME280;66062;52.464;16.922;2023-06-10T04:50:22;100772.63;;;18.75;66.20
77110;BME280;66062;52.464;16.922;2023-06-10T04:52:48;100768.78;;;18.85;66.86
77110;BME280;66062;52.464;16.922;2023-06-10T04:55:13;100774.81;;;19.01;64.93
77110;BME280;66062;52.464;16.922;2023-06-10T04:57:39;100782.50;;;18.98;64.70
77110;BME280;66062;52.464;16.922;2023-06-10T05:00:05;100781.88;;;19.17;64.66
77110;BME280;66062;52.464;16.922;2023-06-10T05:02:31;100782.91;;;19.16;63.50
77110;BME280;66062;52.464;16.922;2023-06-10T05:04:58;100788.84;;;19.26;62.67
77110;BME280;66062;52.464;16.922;2023-06-10T05:07:23;100796.28;;;19.39;62.21
77110;BME280;66062;52.464;16.922;2023-06-10T05:09:49;100795.00;;;19.56;62.07
77110;BME280;66062;52.464;16.922;2023-06-10T05:12:14;100798.03;;;19.68;61.20
77110;BME280;66062;52.464;16.922;2023-06-10T05:14:43;100799.81;;;19.82;60.66
77110;BME280;66062;52.464;16.922;2023-06-10T05:17:10;100794.91;;;19.92;60.08
77110;BME280;66062;52.464;16.922;2023-06-10T05:19:35;100791.59;;;19.96;59.60
77110;BME280;66062;52.464;16.922;2023-06-10T05:22:02;100801.06;;;20.07;59.50
77110;BME280;66062;52.464;16.922;2023-06-10T05:24:28;100809.88;;;19.88;59.91
77110;BME280;66062;52.464;16.922;2023-06-10T05:26:53;100806.38;;;20.22;58.66
77110;BME280;66062;52.464;16.922;2023-06-10T05:29:19;100803.22;;;20.39;57.62
77110;BME280;66062;52.464;16.922;2023-06-10T05:31:45;100808.00;;;20.72;56.84
77110;BME280;66062;52.464;16.922;2023-06-10T05:34:10;100805.97;;;20.87;56.47
77110;BME280;66062;52.464;16.922;2023-06-10T05:36:36;100808.69;;;20.87;56.69
77110;BME280;66062;52.464;16.922;2023-06-10T05:39:01;100814.28;;;20.79;56.94
77110;BME280;66062;52.464;16.922;2023-06-10T05:41:27;100822.28;;;20.93;56.28
77110;BME280;66062;52.464;16.922;2023-06-10T05:43:52;100819.50;;;20.80;57.36
77110;BME280;66062;52.464;16.922;2023-06-10T05:46:17;100819.31;;;20.88;58.00
77110;BME280;66062;52.464;16.922;2023-06-10T05:48:43;100825.88;;;21.01;57.21
77110;BME280;66062;52.464;16.922;2023-06-10T05:51:08;100822.31;;;21.00;57.57
77110;BME280;66062;52.464;16.922;2023-06-10T05:53:36;100825.81;;;20.94;58.02
77110;BME280;66062;52.464;16.922;2023-06-10T05:56:03;100826.84;;;20.93;58.36
77110;BME280;66062;52.464;16.922;2023-06-10T05:58:29;100829.00;;;21.04;58.12
77110;BME280;66062;52.464;16.922;2023-06-10T06:00:54;100826.63;;;21.22;57.35
77110;BME280;66062;52.464;16.922;2023-06-10T06:03:19;100824.38;;;20.98;57.72
77110;BME280;66062;52.464;16.922;2023-06-10T06:05:45;100823.28;;;20.86;58.62
77110;BME280;66062;52.464;16.922;2023-06-10T06:08:11;100825.59;;;20.89;58.31
77110;BME280;66062;52.464;16.922;2023-06-10T06:10:38;100828.94;;;21.32;57.45
77110;BME280;66062;52.464;16.922;2023-06-10T06:13:04;100822.50;;;21.59;56.84
77110;BME280;66062;52.464;16.922;2023-06-10T06:15:29;100823.38;;;21.80;55.87
77110;BME280;66062;52.464;16.922;2023-06-10T06:17:55;100823.16;;;21.81;55.95
77110;BME280;66062;52.464;16.922;2023-06-10T06:20:21;100831.06;;;21.50;56.29
77110;BME280;66062;52.464;16.922;2023-06-10T06:22:47;100823.66;;;21.24;57.38
77110;BME280;66062;52.464;16.922;2023-06-10T06:25:13;100828.16;;;21.58;55.96
77110;BME280;66062;52.464;16.922;2023-06-10T06:27:38;100815.84;;;21.62;56.36
77110;BME280;66062;52.464;16.922;2023-06-10T06:30:04;100820.69;;;22.19;55.19
77110;BME280;66062;52.464;16.922;2023-06-10T06:32:30;100824.59;;;22.56;52.72
77110;BME280;66062;52.464;16.922;2023-06-10T06:34:56;100822.34;;;22.40;52.48
77110;BME280;66062;52.464;16.922;2023-06-10T06:37:22;100817.22;;;22.89;50.58
77110;BME280;66062;52.464;16.922;2023-06-10T06:39:50;100829.09;;;23.01;49.93
77110;BME280;66062;52.464;16.922;2023-06-10T06:42:16;100816.41;;;23.65;48.31
77110;BME280;66062;52.464;16.922;2023-06-10T06:44:42;100814.88;;;23.75;47.56
77110;BME280;66062;52.464;16.922;2023-06-10T06:47:07;100819.31;;;24.26;46.73
77110;BME280;66062;52.464;16.922;2023-06-10T06:49:32;100822.44;;;25.21;44.53
77110;BME280;66062;52.464;16.922;2023-06-10T06:51:58;100816.03;;;25.75;42.26
77110;BME280;66062;52.464;16.922;2023-06-10T06:54:23;100823.84;;;25.41;43.03
77110;BME280;66062;52.464;16.922;2023-06-10T06:56:49;100821.28;;;24.98;43.99
77110;BME280;66062;52.464;16.922;2023-06-10T06:59:19;100826.38;;;25.25;43.65
77110;BME280;66062;52.464;16.922;2023-06-10T07:01:45;100821.41;;;26.16;41.71
77110;BME280;66062;52.464;16.922;2023-06-10T07:04:11;100826.31;;;24.58;43.87
77110;BME280;66062;52.464;16.922;2023-06-10T07:06:36;100835.25;;;24.47;45.85
77110;BME280;66062;52.464;16.922;2023-06-10T07:09:04;100829.88;;;24.41;45.98
77110;BME280;66062;52.464;16.922;2023-06-10T07:11:31;100835.97;;;25.64;42.18
77110;BME280;66062;52.464;16.922;2023-06-10T07:13:57;100836.78;;;25.34;42.78
77110;BME280;66062;52.464;16.922;2023-06-10T07:16:22;100830.72;;;26.73;40.12
77110;BME280;66062;52.464;16.922;2023-06-10T07:18:48;100834.91;;;26.64;40.02
77110;BME280;66062;52.464;16.922;2023-06-10T07:21:13;100827.69;;;28.67;35.57
77110;BME280;66062;52.464;16.922;2023-06-10T07:23:41;100835.03;;;27.61;36.63
77110;BME280;66062;52.464;16.922;2023-06-10T07:26:07;100830.41;;;27.50;37.45
77110;BME280;66062;52.464;16.922;2023-06-10T07:28:33;100831.78;;;26.72;38.55
77110;BME280;66062;52.464;16.922;2023-06-10T07:30:58;100831.38;;;27.72;37.90
77110;BME280;66062;52.464;16.922;2023-06-10T07:33:23;100833.97;;;27.22;38.43
77110;BME280;66062;52.464;16.922;2023-06-10T07:35:49;100817.75;;;29.26;34.63
77110;BME280;66062;52.464;16.922;2023-06-10T07:38:14;100819.19;;;28.30;35.93
77110;BME280;66062;52.464;16.922;2023-06-10T07:40:40;100822.63;;;27.58;37.32
77110;BME280;66062;52.464;16.922;2023-06-10T07:43:05;100829.09;;;28.31;35.97
77110;BME280;66062;52.464;16.922;2023-06-10T07:45:31;100826.28;;;27.64;36.49
77110;BME280;66062;52.464;16.922;2023-06-10T07:47:56;100822.34;;;27.88;37.29
77110;BME280;66062;52.464;16.922;2023-06-10T07:50:22;100828.69;;;29.96;33.20
77110;BME280;66062;52.464;16.922;2023-06-10T07:52:47;100825.16;;;30.85;31.35
77110;BME280;66062;52.464;16.922;2023-06-10T07:55:12;100826.69;;;30.61;31.92
77110;BME280;66062;52.464;16.922;2023-06-10T07:57:38;100831.78;;;29.24;33.90
77110;BME280;66062;52.464;16.922;2023-06-10T08:00:04;100813.81;;;31.38;30.31
77110;BME280;66062;52.464;16.922;2023-06-10T08:02:31;100825.34;;;29.67;31.53
77110;BME280;66062;52.464;16.922;2023-06-10T08:04:59;100822.00;;;31.08;29.07
77110;BME280;66062;52.464;16.922;2023-06-10T08:07:25;100822.41;;;29.47;31.37
77110;BME280;66062;52.464;16.922;2023-06-10T08:09:50;100817.41;;;30.77;29.25
77110;BME280;66062;52.464;16.922;2023-06-10T08:12:16;100824.75;;;31.08;28.87
77110;BME280;66062;52.464;16.922;2023-06-10T08:14:41;100814.75;;;31.95;26.93
77110;BME280;66062;52.464;16.922;2023-06-10T08:17:07;100821.34;;;31.73;27.99
77110;BME280;66062;52.464;16.922;2023-06-10T08:19:32;100819.69;;;30.90;29.37
77110;BME280;66062;52.464;16.922;2023-06-10T08:21:57;100819.00;;;31.25;28.42
77110;BME280;66062;52.464;16.922;2023-06-10T08:24:23;100817.06;;;32.92;25.69
77110;BME280;66062;52.464;16.922;2023-06-10T08:26:48;100830.28;;;30.61;28.21
77110;BME280;66062;52.464;16.922;2023-06-10T08:29:14;100827.19;;;30.47;28.80
77110;BME280;66062;52.464;16.922;2023-06-10T08:31:43;100835.34;;;30.37;27.64
77110;BME280;66062;52.464;16.922;2023-06-10T08:34:09;100828.66;;;31.22;26.64
77110;BME280;66062;52.464;16.922;2023-06-10T08:36:35;100821.66;;;33.22;24.04
77110;BME280;66062;52.464;16.922;2023-06-10T08:39:01;100830.81;;;31.10;25.68
77110;BME280;66062;52.464;16.922;2023-06-10T08:41:33;100836.25;;;30.11;25.92
77110;BME280;66062;52.464;16.922;2023-06-10T08:47:15;100823.66;;;30.20;25.02
77110;BME280;66062;52.464;16.922;2023-06-10T08:49:45;100832.31;;;29.75;26.61
77110;BME280;66062;52.464;16.922;2023-06-10T08:52:18;100829.75;;;31.16;24.90
77110;BME280;66062;52.464;16.922;2023-06-10T08:57:14;100819.84;;;32.87;22.73
77110;BME280;66062;52.464;16.922;2023-06-10T08:59:40;100815.56;;;32.20;24.23
77110;BME280;66062;52.464;16.922;2023-06-10T09:02:07;100823.28;;;33.77;22.57
77110;BME280;66062;52.464;16.922;2023-06-10T09:04:34;100813.59;;;33.31;20.84
77110;BME280;66062;52.464;16.922;2023-06-10T09:07:02;100829.03;;;33.42;20.31
77110;BME280;66062;52.464;16.922;2023-06-10T09:09:28;100819.91;;;32.67;20.39
77110;BME280;66062;52.464;16.922;2023-06-10T09:11:55;100817.41;;;33.40;19.67
77110;BME280;66062;52.464;16.922;2023-06-10T09:14:21;100814.50;;;34.57;19.00
77110;BME280;66062;52.464;16.922;2023-06-10T09:16:46;100820.06;;;34.57;21.56
77110;BME280;66062;52.464;16.922;2023-06-10T09:19:14;100825.53;;;33.65;22.58
77110;BME280;66062;52.464;16.922;2023-06-10T09:21:40;100825.53;;;35.52;20.31
77110;BME280;66062;52.464;16.922;2023-06-10T09:24:06;100823.22;;;34.98;21.80
77110;BME280;66062;52.464;16.922;2023-06-10T09:26:31;100831.31;;;31.90;23.69
77110;BME280;66062;52.464;16.922;2023-06-10T09:29:06;100824.22;;;34.83;20.55
77110;BME280;66062;52.464;16.922;2023-06-10T09:31:35;100817.63;;;36.15;20.19
77110;BME280;66062;52.464;16.922;2023-06-10T09:34:10;100816.94;;;34.63;21.93
77110;BME280;66062;52.464;16.922;2023-06-10T09:36:37;100824.41;;;35.53;20.95
77110;BME280;66062;52.464;16.922;2023-06-10T09:39:03;100820.47;;;32.74;24.06
77110;BME280;66062;52.464;16.922;2023-06-10T09:41:39;100811.34;;;33.33;23.96
77110;BME280;66062;52.464;16.922;2023-06-10T09:44:11;100817.72;;;32.69;24.98
77110;BME280;66062;52.464;16.922;2023-06-10T09:46:37;100814.38;;;32.72;25.08
77110;BME280;66062;52.464;16.922;2023-06-10T09:49:03;100829.03;;;30.89;27.03
77110;BME280;66062;52.464;16.922;2023-06-10T09:51:29;100816.75;;;33.53;23.88
77110;BME280;66062;52.464;16.922;2023-06-10T09:53:54;100821.28;;;34.17;23.06
77110;BME280;66062;52.464;16.922;2023-06-10T09:56:20;100814.16;;;34.63;23.23
77110;BME280;66062;52.464;16.922;2023-06-10T09:58:46;100818.41;;;35.03;20.57
77110;BME280;66062;52.464;16.922;2023-06-10T10:01:13;100811.19;;;33.58;21.76
77110;BME280;66062;52.464;16.922;2023-06-10T10:03:51;100816.63;;;32.50;24.42
77110;BME280;66062;52.464;16.922;2023-06-10T10:06:18;100810.25;;;32.64;23.55
77110;BME280;66062;52.464;16.922;2023-06-10T10:08:48;100812.41;;;34.20;21.21
77110;BME280;66062;52.464;16.922;2023-06-10T10:11:16;100809.81;;;33.17;22.29
77110;BME280;66062;52.464;16.922;2023-06-10T10:13:45;100814.69;;;32.65;22.65
77110;BME280;66062;52.464;16.922;2023-06-10T10:16:12;100815.44;;;34.47;20.22
77110;BME280;66062;52.464;16.922;2023-06-10T10:18:43;100805.63;;;34.02;21.46
77110;BME280;66062;52.464;16.922;2023-06-10T10:21:15;100811.63;;;32.52;22.92
77110;BME280;66062;52.464;16.922;2023-06-10T10:23:55;100800.56;;;32.52;22.58
77110;BME280;66062;52.464;16.922;2023-06-10T10:26:22;100824.34;;;30.89;25.20
77110;BME280;66062;52.464;16.922;2023-06-10T10:28:56;100804.91;;;33.42;22.47
77110;BME280;66062;52.464;16.922;2023-06-10T10:31:23;100803.78;;;33.92;21.89
77110;BME280;66062;52.464;16.922;2023-06-10T10:33:58;100803.88;;;33.33;22.27
77110;BME280;66062;52.464;16.922;2023-06-10T10:36:25;100808.59;;;32.58;23.70
77110;BME280;66062;52.464;16.922;2023-06-10T10:38:51;100804.47;;;33.30;22.34
77110;BME280;66062;52.464;16.922;2023-06-10T10:41:17;100801.38;;;34.10;21.61
77110;BME280;66062;52.464;16.922;2023-06-10T10:43:44;100797.03;;;32.06;23.74
77110;BME280;66062;52.464;16.922;2023-06-10T10:46:15;100800.22;;;32.84;22.41
77110;BME280;66062;52.464;16.922;2023-06-10T10:48:43;100800.66;;;33.60;20.29
77110;BME280;66062;52.464;16.922;2023-06-10T10:51:09;100802.72;;;31.13;22.70
77110;BME280;66062;52.464;16.922;2023-06-10T10:53:37;100802.53;;;33.31;20.54
77110;BME280;66062;52.464;16.922;2023-06-10T10:56:12;100796.78;;;31.92;21.78
77110;BME280;66062;52.464;16.922;2023-06-10T10:58:38;100803.19;;;32.97;21.02
77110;BME280;66062;52.464;16.922;2023-06-10T11:01:13;100795.88;;;32.52;21.58
77110;BME280;66062;52.464;16.922;2023-06-10T11:03:44;100793.63;;;32.75;21.34
77110;BME280;66062;52.464;16.922;2023-06-10T11:06:21;100796.84;;;33.51;20.73
77110;BME280;66062;52.464;16.922;2023-06-10T11:08:49;100794.81;;;34.01;19.93
77110;BME280;66062;52.464;16.922;2023-06-10T11:11:25;100798.69;;;31.76;22.38
77110;BME280;66062;52.464;16.922;2023-06-10T11:16:26;100794.22;;;31.40;23.12
77110;BME280;66062;52.464;16.922;2023-06-10T11:18:56;100789.88;;;31.90;21.94
77110;BME280;66062;52.464;16.922;2023-06-10T11:21:25;100789.88;;;33.09;21.57
77110;BME280;66062;52.464;16.922;2023-06-10T11:23:51;100794.00;;;32.02;23.02
77110;BME280;66062;52.464;16.922;2023-06-10T11:26:29;100799.25;;;31.58;23.10
77110;BME280;66062;52.464;16.922;2023-06-10T11:36:23;100778.53;;;31.81;22.74
77110;BME280;66062;52.464;16.922;2023-06-10T11:38:57;100789.28;;;31.52;23.15
77110;BME280;66062;52.464;16.922;2023-06-10T11:41:27;100784.38;;;31.95;21.99
77110;BME280;66062;52.464;16.922;2023-06-10T11:43:54;100788.44;;;31.47;22.13
77110;BME280;66062;52.464;16.922;2023-06-10T11:46:23;100786.81;;;32.26;21.50
77110;BME280;66062;52.464;16.922;2023-06-10T11:48:53;100783.91;;;32.82;19.87
77110;BME280;66062;52.464;16.922;2023-06-10T11:51:19;100774.78;;;34.09;19.16
77110;BME280;66062;52.464;16.922;2023-06-10T11:53:45;100785.16;;;31.65;21.28
77110;BME280;66062;52.464;16.922;2023-06-10T11:56:11;100790.69;;;32.15;21.70
77110;BME280;66062;52.464;16.922;2023-06-10T11:58:36;100780.59;;;33.39;19.39
77110;BME280;66062;52.464;16.922;2023-06-10T12:01:02;100773.31;;;33.48;19.97
77110;BME280;66062;52.464;16.922;2023-06-10T12:03:36;100775.88;;;32.91;19.95
77110;BME280;66062;52.464;16.922;2023-06-10T12:06:06;100790.69;;;31.75;22.23
77110;BME280;66062;52.464;16.922;2023-06-10T12:08:32;100782.56;;;31.08;22.14
77110;BME280;66062;52.464;16.922;2023-06-10T12:10:59;100777.06;;;31.13;22.21
77110;BME280;66062;52.464;16.922;2023-06-10T12:13:28;100780.16;;;31.41;22.35
77110;BME280;66062;52.464;16.922;2023-06-10T12:15:54;100770.81;;;31.73;21.83
77110;BME280;66062;52.464;16.922;2023-06-10T12:18:23;100771.06;;;32.32;21.21
77110;BME280;66062;52.464;16.922;2023-06-10T12:20:49;100766.50;;;32.82;20.75
77110;BME280;66062;52.464;16.922;2023-06-10T12:23:18;100769.63;;;32.65;20.24
77110;BME280;66062;52.464;16.922;2023-06-10T12:25:54;100776.81;;;32.66;20.63
77110;BME280;66062;52.464;16.922;2023-06-10T12:28:23;100775.59;;;32.87;20.20
77110;BME280;66062;52.464;16.922;2023-06-10T12:30:49;100780.19;;;32.33;20.66
77110;BME280;66062;52.464;16.922;2023-06-10T12:33:21;100779.03;;;31.32;21.54
77110;BME280;66062;52.464;16.922;2023-06-10T12:35:48;100793.09;;;30.64;22.40
77110;BME280;66062;52.464;16.922;2023-06-10T12:38:14;100766.97;;;31.94;21.31
77110;BME280;66062;52.464;16.922;2023-06-10T12:40:40;100765.25;;;32.34;20.43
77110;BME280;66062;52.464;16.922;2023-06-10T12:43:06;100758.41;;;33.00;19.91
77110;BME280;66062;52.464;16.922;2023-06-10T12:45:36;100773.84;;;32.07;20.68
77110;BME280;66062;52.464;16.922;2023-06-10T12:48:12;100769.59;;;29.77;23.20
77110;BME280;66062;52.464;16.922;2023-06-10T12:50:42;100776.34;;;30.75;21.92
77110;BME280;66062;52.464;16.922;2023-06-10T12:53:10;100755.72;;;32.85;20.30
77110;BME280;66062;52.464;16.922;2023-06-10T12:55:36;100755.72;;;32.80;20.00
77110;BME280;66062;52.464;16.922;2023-06-10T12:58:02;100754.22;;;33.86;18.92